CSCL Autumn — VRNA7 — position and weather

sailwx.info

Track history (hours):
 
Tides and Currents Weather Stations Pressure Air Temp Water Temp Dewpoint Dewpoint Depression Visibility Wind Speed Wind Dir Waves Ship Positions

CSCL Autumn

Last reported at 2017-Sep-19 20:07 UTC. Time now 2017-Sep-23 16:17 UTC.
Position N 37°41' W 124°33'.

Length 335 m; draft 12 m.

Type: Ship (hazmat cat A). MMSI: 477117900.

Date/timePositionNaut miles runAvg speedWind from/ knotsBaromVisibWave heightAir tempDewpointWater temp
2017-Sep-19 20:07N 37°41' W 124°33'514.2
2017-Sep-19 19:46N 37°41' W 124°27'414.5
2017-Sep-19 19:29N 37°41' W 124°21'714.2
2017-Sep-19 19:00N 37°40' W 124°13'714.5
2017-Sep-19 18:30N 37°39' W 124°04'714.6
2017-Sep-19 18:00N 37°38' W 123°55'714.7
2017-Sep-19 17:30N 37°38' W 123°45'714.7
2017-Sep-19 17:00N 37°37' W 123°36'714.6
2017-Sep-19 16:30N 37°36' W 123°27'714.5
2017-Sep-19 16:00N 37°35' W 123°18'714.3
2017-Sep-19 15:30N 37°35' W 123°09'713.7
2017-Sep-19 15:00N 37°36' W 123°00'714.4
2017-Sep-19 14:30N 37°40' W 122°53'714.0
2017-Sep-19 14:00N 37°43' W 122°45'611.5
2017-Sep-19 13:30N 37°46' W 122°39'816.6
2017-Sep-19 13:00N 37°49' W 122°29'5 9.8
2017-Sep-19 12:30N 37°49' W 122°23'3 6.0
2017-Sep-19 12:00N 37°48' W 122°19'0 0.0
2017-Sep-19 11:30N 37°48' W 122°19'0 0.0
2017-Sep-19 11:00N 37°48' W 122°19'0 0.0
2017-Sep-19 10:30N 37°48' W 122°19'0 0.0
2017-Sep-19 10:00N 37°48' W 122°19'0 0.0
2017-Sep-19 09:30N 37°48' W 122°19'0 0.0
2017-Sep-19 09:00N 37°48' W 122°19'0 0.0
2017-Sep-19 08:30N 37°48' W 122°19'0 0.0
2017-Sep-19 08:00N 37°48' W 122°19'0 0.0
2017-Sep-19 07:30N 37°48' W 122°19'0 0.0
2017-Sep-19 07:00N 37°48' W 122°19'0 0.0
2017-Sep-19 06:30N 37°48' W 122°19'0 0.0
2017-Sep-19 06:00N 37°48' W 122°19'0 0.0
2017-Sep-19 05:30N 37°48' W 122°19'0 0.0
2017-Sep-19 05:00N 37°48' W 122°19'0 0.0
2017-Sep-19 04:30N 37°48' W 122°19'0 0.0
2017-Sep-19 04:00N 37°48' W 122°19'0 0.0
2017-Sep-19 03:30N 37°48' W 122°19'0 0.0
2017-Sep-19 03:00N 37°48' W 122°19'0 0.0
2017-Sep-19 02:30N 37°48' W 122°19'0 0.0
2017-Sep-19 02:00N 37°48' W 122°19'0 0.0
2017-Sep-19 01:30N 37°48' W 122°19'0 0.0
2017-Sep-19 01:00N 37°48' W 122°19'0 0.0
2017-Sep-19 00:30N 37°48' W 122°19'0 0.0
2017-Sep-19 00:00N 37°48' W 122°19'0 0.0
2017-Sep-18 23:30N 37°48' W 122°19'0 0.0
2017-Sep-18 23:00N 37°48' W 122°19'0 0.0
2017-Sep-18 22:27N 37°48' W 122°19'0 0.0
2017-Sep-18 22:00N 37°48' W 122°19'0 0.0
2017-Sep-18 21:30N 37°48' W 122°19'0 0.0
2017-Sep-18 21:00N 37°48' W 122°19'0 0.0
2017-Sep-18 20:30N 37°48' W 122°19'0 0.0
2017-Sep-18 20:00N 37°48' W 122°19'0 0.0
2017-Sep-18 19:30N 37°48' W 122°19'0 0.0
2017-Sep-18 19:00N 37°48' W 122°19'0 0.0
2017-Sep-18 18:30N 37°48' W 122°19'0 0.0
2017-Sep-18 18:00N 37°48' W 122°19'0 0.0
2017-Sep-18 17:30N 37°48' W 122°19'0 0.0
2017-Sep-18 17:00N 37°48' W 122°19'0 0.0
2017-Sep-18 16:30N 37°48' W 122°19'0 0.0
2017-Sep-18 16:00N 37°48' W 122°19'0 0.0
2017-Sep-18 15:30N 37°48' W 122°19'0 0.0
2017-Sep-18 15:00N 37°48' W 122°19'0 0.0
2017-Sep-18 14:30N 37°48' W 122°19'0 0.0
2017-Sep-18 14:00N 37°48' W 122°19'0 0.0
2017-Sep-18 13:30N 37°48' W 122°19'0 0.0
2017-Sep-18 13:00N 37°48' W 122°19'0 0.6
2017-Sep-18 12:31N 37°48' W 122°19'1 2.1
2017-Sep-18 12:01N 37°48' W 122°18'2 4.7
2017-Sep-18 11:31N 37°48' W 122°20'510.2
2017-Sep-18 11:01N 37°49' W 122°27'611.8
2017-Sep-18 10:30N 37°47' W 122°34'611.7
2017-Sep-18 10:00N 37°45' W 122°41'4 8.9
2017-Sep-18 09:30N 37°40' W 122°40'5 9.7
2017-Sep-18 09:00N 37°35' W 122°40'5 9.7
2017-Sep-18 08:30N 37°31' W 122°40'5 9.8
2017-Sep-18 08:00N 37°26' W 122°40'5 9.8
2017-Sep-18 07:30N 37°21' W 122°40'5 9.8
2017-Sep-18 07:00N 37°16' W 122°39'5 9.7
2017-Sep-18 06:30N 37°11' W 122°39'4 8.8
2017-Sep-18 06:00N 37°07' W 122°38'611.9
2017-Sep-18 05:30N 37°01' W 122°36'612.7
2017-Sep-18 05:00N 36°55' W 122°35'712.8
2017-Sep-18 04:29N 36°48' W 122°34'613.0
2017-Sep-18 04:00N 36°42' W 122°33'612.8
2017-Sep-18 03:30N 36°36' W 122°31'1112.5
2017-Sep-18 02:39N 36°25' W 122°29'212.4
2017-Sep-18 02:28N 36°23' W 122°29'712.5
2017-Sep-18 01:53N 36°16' W 122°27'512.3
2017-Sep-18 01:30N 36°11' W 122°26'612.3
2017-Sep-18 01:00N 36°05' W 122°24'612.2
2017-Sep-18 00:30N 35°59' W 122°21'4 8.6
2017-Sep-18 00:00N 35°56' W 122°19'1 2.6
2017-Sep-17 23:30N 35°57' W 122°19'1 2.5
2017-Sep-17 23:00N 35°58' W 122°19'1 2.6
2017-Sep-17 22:30N 35°59' W 122°19'1 2.5
2017-Sep-17 22:00N 36°01' W 122°20'1 1.6
2017-Sep-17 21:30N 36°01' W 122°20'2 4.9
2017-Sep-17 21:00N 35°60' W 122°18'612.6
2017-Sep-17 20:30N 35°55' W 122°13'612.7
2017-Sep-17 20:00N 35°49' W 122°09'612.7
2017-Sep-17 19:30N 35°44' W 122°05'713.6
2017-Sep-17 19:00N 35°38' W 122°00'713.6
2017-Sep-17 18:30N 35°32' W 121°56'713.4
2017-Sep-17 18:00N 35°26' W 121°52'813.3
2017-Sep-17 17:23N 35°19' W 121°46'513.7
2017-Sep-17 17:00N 35°15' W 121°43'713.8
2017-Sep-17 16:31N 35°09' W 121°38'713.8
2017-Sep-17 16:00N 35°03' W 121°34'713.9
2017-Sep-17 15:30N 34°58' W 121°29'714.0
2017-Sep-17 15:00N 34°52' W 121°25'713.7
2017-Sep-17 14:30N 34°46' W 121°20'713.6
2017-Sep-17 14:00N 34°40' W 121°16'713.6
2017-Sep-17 13:30N 34°35' W 121°11'713.3
2017-Sep-17 13:01N 34°30' W 121°06'714.0
2017-Sep-17 12:31N 34°28' W 120°58'713.7
2017-Sep-17 12:00N 34°26' W 120°50'713.8
2017-Sep-17 11:31N 34°24' W 120°42'713.9
2017-Sep-17 11:01N 34°22' W 120°33'713.7
2017-Sep-17 10:29N 34°20' W 120°25'714.2
2017-Sep-17 10:00N 34°18' W 120°17'914.0
2017-Sep-17 09:23N 34°16' W 120°07'513.9
2017-Sep-17 09:00N 34°15' W 120°01'713.5
2017-Sep-17 08:30N 34°13' W 119°53'713.2
2017-Sep-17 08:00N 34°11' W 119°45'713.5
2017-Sep-17 07:30N 34°10' W 119°37'713.3
2017-Sep-17 07:00N 34°08' W 119°30'713.1
2017-Sep-17 06:30N 34°06' W 119°22'713.2
2017-Sep-17 05:59N 34°04' W 119°14'613.2
2017-Sep-17 05:30N 34°01' W 119°07'612.8
2017-Sep-17 05:00N 33°57' W 119°01'611.7
2017-Sep-17 04:30N 33°54' W 118°55'611.6
2017-Sep-17 03:59N 33°51' W 118°48'611.8
2017-Sep-17 03:30N 33°49' W 118°42'611.8
2017-Sep-17 03:00N 33°46' W 118°36'611.7
2017-Sep-17 02:27N 33°43' W 118°29'511.4
2017-Sep-17 02:01N 33°40' W 118°24'510.8
2017-Sep-17 01:31N 33°38' W 118°18'5 9.4
2017-Sep-17 01:00N 33°39' W 118°12'5 9.1
2017-Sep-17 00:30N 33°44' W 118°11'1 1.2
2017-Sep-16 23:54N 33°44' W 118°12'0 0.0
2017-Sep-16 23:30N 33°44' W 118°12'0 0.0
2017-Sep-16 23:00N 33°44' W 118°12'0 0.0
2017-Sep-16 22:30N 33°44' W 118°12'0 0.0
2017-Sep-16 22:00N 33°44' W 118°12'0 0.0
2017-Sep-16 21:24N 33°44' W 118°12'0 0.0
2017-Sep-16 20:48N 33°44' W 118°12'0 0.0
2017-Sep-16 20:30N 33°44' W 118°12'0 0.0
2017-Sep-16 19:48N 33°44' W 118°12'0 0.0
2017-Sep-16 19:30N 33°44' W 118°12'0 0.0
2017-Sep-16 19:00N 33°44' W 118°12'0 0.0
2017-Sep-16 18:30N 33°44' W 118°12'0 0.0
2017-Sep-16 18:00N 33°44' W 118°12'0 0.0
2017-Sep-16 17:27N 33°44' W 118°12'0 0.0
2017-Sep-16 17:00N 33°44' W 118°12'0 0.0
2017-Sep-16 16:30N 33°44' W 118°12'0 0.0
2017-Sep-16 16:00N 33°44' W 118°12'0 0.0
2017-Sep-16 15:27N 33°44' W 118°12'0 0.0
2017-Sep-16 14:57N 33°44' W 118°12'0 0.0
2017-Sep-16 14:27N 33°44' W 118°12'0 0.0
2017-Sep-16 14:00N 33°44' W 118°12'0 0.0
2017-Sep-16 13:30N 33°44' W 118°12'0 0.0
2017-Sep-16 13:00N 33°44' W 118°12'0 0.0
2017-Sep-16 12:30N 33°44' W 118°12'0 0.0
2017-Sep-16 12:00N 33°44' W 118°12'0 0.0
2017-Sep-16 11:30N 33°44' W 118°12'0 0.0
2017-Sep-16 10:54N 33°44' W 118°12'0 0.0
2017-Sep-16 10:24N 33°44' W 118°12'0 0.0
2017-Sep-16 08:57N 33°44' W 118°12'0 0.0
2017-Sep-16 07:56N 33°44' W 118°12'0 0.0
2017-Sep-16 07:26N 33°44' W 118°12'0 0.0
2017-Sep-16 06:59N 33°44' W 118°12'0 0.0
2017-Sep-16 06:29N 33°44' W 118°12'0 0.0
2017-Sep-16 05:59N 33°44' W 118°12'0 0.0
2017-Sep-16 05:29N 33°44' W 118°12'0 0.0
2017-Sep-16 04:59N 33°44' W 118°12'0 0.0
2017-Sep-16 04:26N 33°44' W 118°12'0 0.0
2017-Sep-16 03:53N 33°44' W 118°12'0 0.0
2017-Sep-16 03:29N 33°44' W 118°12'0 0.0
2017-Sep-16 02:59N 33°44' W 118°12'0 0.0
2017-Sep-16 02:29N 33°44' W 118°12'0 0.0
2017-Sep-16 01:59N 33°44' W 118°12'0 0.0
2017-Sep-16 01:26N 33°44' W 118°12'0 0.0
2017-Sep-16 00:50N 33°44' W 118°12'0 0.0
2017-Sep-15 22:44N 33°44' W 118°12'0 0.0
2017-Sep-15 22:14N 33°44' W 118°12'0 0.0
2017-Sep-15 21:56N 33°44' W 118°12'0 0.1
2017-Sep-15 21:26N 33°44' W 118°12'0 0.1
2017-Sep-15 20:50N 33°44' W 118°12'0 0.0
2017-Sep-15 20:02N 33°44' W 118°12'0 0.1
2017-Sep-15 19:59N 33°44' W 118°12'0 0.0
2017-Sep-15 19:29N 33°44' W 118°12'0 0.0
2017-Sep-15 18:59N 33°44' W 118°12'0 0.0
2017-Sep-15 18:30N 33°44' W 118°12'0 0.0
2017-Sep-15 18:00N 33°44' W 118°12'0 0.1
2017-Sep-15 17:27N 33°44' W 118°12'0 0.0
2017-Sep-15 15:07N 33°44' W 118°12'0 0.0
2017-Sep-15 14:58N 33°44' W 118°12'0 0.0
2017-Sep-15 14:28N 33°44' W 118°12'0 0.0
2017-Sep-15 13:43N 33°44' W 118°12'0 0.1
2017-Sep-15 13:25N 33°44' W 118°12'0 0.1
2017-Sep-15 12:55N 33°44' W 118°12'0 0.1
2017-Sep-15 12:30N 33°44' W 118°12'0 0.1
2017-Sep-15 12:00N 33°44' W 118°12'0 0.0
2017-Sep-15 11:30N 33°44' W 118°12'0 0.0
2017-Sep-15 11:00N 33°44' W 118°12'0 0.1
2017-Sep-15 10:30N 33°44' W 118°12'0 0.1
2017-Sep-15 10:00N 33°44' W 118°12'0 0.0
2017-Sep-15 09:30N 33°44' W 118°12'0 0.0
2017-Sep-15 08:57N 33°44' W 118°12'0 0.0
2017-Sep-15 08:30N 33°44' W 118°12'0 0.0
2017-Sep-15 08:00N 33°44' W 118°12'0 0.0
2017-Sep-15 07:30N 33°44' W 118°12'0 0.0
2017-Sep-15 07:00N 33°44' W 118°12'0 0.1
2017-Sep-15 06:30N 33°44' W 118°12'0 0.1
2017-Sep-15 06:00N 33°44' W 118°12'0 0.0
2017-Sep-15 03:51N 33°44' W 118°12'0 0.0
2017-Sep-15 03:21N 33°44' W 118°12'0 0.0
2017-Sep-15 03:00N 33°44' W 118°12'0 0.0
2017-Sep-15 02:24N 33°44' W 118°12'0 0.0
2017-Sep-15 02:00N 33°44' W 118°12'0 0.0
2017-Sep-15 01:27N 33°44' W 118°12'0 0.0
2017-Sep-14 23:57N 33°44' W 118°12'0 0.0
2017-Sep-14 23:27N 33°44' W 118°12'0 0.0
2017-Sep-14 22:51N 33°44' W 118°12'0 0.0
2017-Sep-14 22:27N 33°44' W 118°12'0 0.0
2017-Sep-14 22:00N 33°44' W 118°12'0 0.0
2017-Sep-14 21:30N 33°44' W 118°12'0 0.0
2017-Sep-14 21:00N 33°44' W 118°12'0 0.0
2017-Sep-14 20:24N 33°44' W 118°12'0 0.0
2017-Sep-14 20:00N 33°44' W 118°12'0 0.0
2017-Sep-14 19:27N 33°44' W 118°12'0 0.0
2017-Sep-14 18:57N 33°44' W 118°12'0 0.0
2017-Sep-14 18:30N 33°44' W 118°12'0 0.0
2017-Sep-14 18:00N 33°44' W 118°12'0 0.0
2017-Sep-14 17:23N 33°44' W 118°12'0 0.0
2017-Sep-14 16:53N 33°44' W 118°12'0 0.0
2017-Sep-14 15:05N 33°44' W 118°12'0 0.0
2017-Sep-14 14:59N 33°44' W 118°12'0 0.0
2017-Sep-14 14:23N 33°44' W 118°12'0 0.0
2017-Sep-14 13:56N 33°44' W 118°12'0 0.0
2017-Sep-14 13:29N 33°44' W 118°12'0 0.0
2017-Sep-14 12:53N 33°44' W 118°12'0 0.1
2017-Sep-14 12:30N 33°44' W 118°12'1 1.3
2017-Sep-14 12:01N 33°44' W 118°11'4 7.6
2017-Sep-14 11:31N 33°40' W 118°11'4 7.1
2017-Sep-14 11:01N 33°37' W 118°13'3 6.7
2017-Sep-14 10:31N 33°36' W 118°17'4 8.2
2017-Sep-14 10:00N 33°36' W 118°22'5 9.9
2017-Sep-14 09:31N 33°39' W 118°27'510.1
2017-Sep-14 09:00N 33°41' W 118°32'510.8
2017-Sep-14 08:30N 33°44' W 118°38'510.6
2017-Sep-14 08:00N 33°47' W 118°43'510.7
2017-Sep-14 07:31N 33°50' W 118°49'510.9
2017-Sep-14 07:00N 33°52' W 118°54'510.6
2017-Sep-14 06:31N 33°55' W 118°60'610.4
2017-Sep-14 05:59N 33°57' W 119°06'510.4
2017-Sep-14 05:30N 33°60' W 119°11'610.6
2017-Sep-14 04:59N 34°02' W 119°17'511.3
2017-Sep-14 04:30N 34°04' W 119°23'611.9
2017-Sep-14 04:00N 34°06' W 119°30'612.1
2017-Sep-14 03:30N 34°07' W 119°37'612.8
2017-Sep-14 03:00N 34°09' W 119°44'713.6
2017-Sep-14 02:30N 34°11' W 119°52'814.3
2017-Sep-14 01:56N 34°13' W 120°02'613.9
2017-Sep-14 01:30N 34°15' W 120°09'713.5
2017-Sep-14 01:00N 34°16' W 120°17'713.5
2017-Sep-14 00:30N 34°18' W 120°25'713.8
2017-Sep-13 23:59N 34°20' W 120°33'713.8
2017-Sep-13 23:30N 34°22' W 120°41'813.5
2017-Sep-13 22:56N 34°24' W 120°50'410.4
2017-Sep-13 22:30N 34°25' W 120°55'713.1
2017-Sep-13 21:59N 34°27' W 121°03'612.7
2017-Sep-13 21:30N 34°30' W 121°09'714.7
2017-Sep-13 21:00N 34°36' W 121°14'917.3
2017-Sep-13 20:30N 34°43' W 121°20'917.1
2017-Sep-13 20:00N 34°50' W 121°25'917.1
2017-Sep-13 19:30N 34°58' W 121°31'917.2
2017-Sep-13 19:00N 35°05' W 121°37'917.3
2017-Sep-13 18:30N 35°12' W 121°42'816.8
2017-Sep-13 18:00N 35°19' W 121°48'816.9
2017-Sep-13 17:30N 35°26' W 121°54'917.2
2017-Sep-13 17:00N 35°34' W 121°59'917.5
2017-Sep-13 16:30N 35°41' W 122°05'5017.5
2017-Sep-13 13:39N 36°23' W 122°38'417.4
2017-Sep-13 13:27N 36°26' W 122°41'1317.5
2017-Sep-13 12:42N 36°37' W 122°50'517.4
2017-Sep-13 12:27N 36°41' W 122°53'817.6
2017-Sep-13 12:00N 36°47' W 122°58'918.3
2017-Sep-13 11:30N 36°55' W 123°04'918.5
2017-Sep-13 11:00N 37°03' W 123°10'3118.6
2017-Sep-13 09:21N 37°29' W 123°31'2118.4
2017-Sep-13 08:13N 37°46' W 123°45'618.5
2017-Sep-13 07:53N 37°52' W 123°50'718.5
2017-Sep-13 07:30N 37°57' W 123°54'918.7
2017-Sep-13 07:00N 38°05' W 124°00'918.6
2017-Sep-13 06:30N 38°13' W 124°07'918.4
2017-Sep-13 06:00N 38°21' W 124°13'918.5
2017-Sep-13 05:30N 38°29' W 124°19'1818.9
2017-Sep-13 04:34N 38°44' W 124°30'119.1
2017-Sep-13 04:30N 38°45' W 124°31'  
Track history (hours):
 
Tides and Currents Weather Stations Pressure Air Temp Water Temp Dewpoint Dewpoint Depression Visibility Wind Speed Wind Dir Waves Ship Positions

CSCL Autumn

Last reported at 2017-Sep-19 20:07 UTC. Time now 2017-Sep-23 16:17 UTC.
Position N 37°41' W 124°33'.

Length 335 m; draft 12 m.

Type: Ship (hazmat cat A). MMSI: 477117900.

Date/timePositionNaut miles runAvg speedWind from/ knotsBaromVisibWave heightAir tempDewpointWater temp
2017-Sep-19 20:07N 37°41' W 124°33'514.2
2017-Sep-19 19:46N 37°41' W 124°27'414.5
2017-Sep-19 19:29N 37°41' W 124°21'714.2
2017-Sep-19 19:00N 37°40' W 124°13'714.5
2017-Sep-19 18:30N 37°39' W 124°04'714.6
2017-Sep-19 18:00N 37°38' W 123°55'714.7
2017-Sep-19 17:30N 37°38' W 123°45'714.7
2017-Sep-19 17:00N 37°37' W 123°36'714.6
2017-Sep-19 16:30N 37°36' W 123°27'714.5
2017-Sep-19 16:00N 37°35' W 123°18'714.3
2017-Sep-19 15:30N 37°35' W 123°09'713.7
2017-Sep-19 15:00N 37°36' W 123°00'714.4
2017-Sep-19 14:30N 37°40' W 122°53'714.0
2017-Sep-19 14:00N 37°43' W 122°45'611.5
2017-Sep-19 13:30N 37°46' W 122°39'816.6
2017-Sep-19 13:00N 37°49' W 122°29'5 9.8
2017-Sep-19 12:30N 37°49' W 122°23'3 6.0
2017-Sep-19 12:00N 37°48' W 122°19'0 0.0
2017-Sep-19 11:30N 37°48' W 122°19'0 0.0
2017-Sep-19 11:00N 37°48' W 122°19'0 0.0
2017-Sep-19 10:30N 37°48' W 122°19'0 0.0
2017-Sep-19 10:00N 37°48' W 122°19'0 0.0
2017-Sep-19 09:30N 37°48' W 122°19'0 0.0
2017-Sep-19 09:00N 37°48' W 122°19'0 0.0
2017-Sep-19 08:30N 37°48' W 122°19'0 0.0
2017-Sep-19 08:00N 37°48' W 122°19'0 0.0
2017-Sep-19 07:30N 37°48' W 122°19'0 0.0
2017-Sep-19 07:00N 37°48' W 122°19'0 0.0
2017-Sep-19 06:30N 37°48' W 122°19'0 0.0
2017-Sep-19 06:00N 37°48' W 122°19'0 0.0
2017-Sep-19 05:30N 37°48' W 122°19'0 0.0
2017-Sep-19 05:00N 37°48' W 122°19'0 0.0
2017-Sep-19 04:30N 37°48' W 122°19'0 0.0
2017-Sep-19 04:00N 37°48' W 122°19'0 0.0
2017-Sep-19 03:30N 37°48' W 122°19'0 0.0
2017-Sep-19 03:00N 37°48' W 122°19'0 0.0
2017-Sep-19 02:30N 37°48' W 122°19'0 0.0
2017-Sep-19 02:00N 37°48' W 122°19'0 0.0
2017-Sep-19 01:30N 37°48' W 122°19'0 0.0
2017-Sep-19 01:00N 37°48' W 122°19'0 0.0
2017-Sep-19 00:30N 37°48' W 122°19'0 0.0
2017-Sep-19 00:00N 37°48' W 122°19'0 0.0
2017-Sep-18 23:30N 37°48' W 122°19'0 0.0
2017-Sep-18 23:00N 37°48' W 122°19'0 0.0
2017-Sep-18 22:27N 37°48' W 122°19'0 0.0
2017-Sep-18 22:00N 37°48' W 122°19'0 0.0
2017-Sep-18 21:30N 37°48' W 122°19'0 0.0
2017-Sep-18 21:00N 37°48' W 122°19'0 0.0
2017-Sep-18 20:30N 37°48' W 122°19'0 0.0
2017-Sep-18 20:00N 37°48' W 122°19'0 0.0
2017-Sep-18 19:30N 37°48' W 122°19'0 0.0
2017-Sep-18 19:00N 37°48' W 122°19'0 0.0
2017-Sep-18 18:30N 37°48' W 122°19'0 0.0
2017-Sep-18 18:00N 37°48' W 122°19'0 0.0
2017-Sep-18 17:30N 37°48' W 122°19'0 0.0
2017-Sep-18 17:00N 37°48' W 122°19'0 0.0
2017-Sep-18 16:30N 37°48' W 122°19'0 0.0
2017-Sep-18 16:00N 37°48' W 122°19'0 0.0
2017-Sep-18 15:30N 37°48' W 122°19'0 0.0
2017-Sep-18 15:00N 37°48' W 122°19'0 0.0
2017-Sep-18 14:30N 37°48' W 122°19'0 0.0
2017-Sep-18 14:00N 37°48' W 122°19'0 0.0
2017-Sep-18 13:30N 37°48' W 122°19'0 0.0
2017-Sep-18 13:00N 37°48' W 122°19'0 0.6
2017-Sep-18 12:31N 37°48' W 122°19'1 2.1
2017-Sep-18 12:01N 37°48' W 122°18'2 4.7
2017-Sep-18 11:31N 37°48' W 122°20'510.2
2017-Sep-18 11:01N 37°49' W 122°27'611.8
2017-Sep-18 10:30N 37°47' W 122°34'611.7
2017-Sep-18 10:00N 37°45' W 122°41'4 8.9
2017-Sep-18 09:30N 37°40' W 122°40'5 9.7
2017-Sep-18 09:00N 37°35' W 122°40'5 9.7
2017-Sep-18 08:30N 37°31' W 122°40'5 9.8
2017-Sep-18 08:00N 37°26' W 122°40'5 9.8
2017-Sep-18 07:30N 37°21' W 122°40'5 9.8
2017-Sep-18 07:00N 37°16' W 122°39'5 9.7
2017-Sep-18 06:30N 37°11' W 122°39'4 8.8
2017-Sep-18 06:00N 37°07' W 122°38'611.9
2017-Sep-18 05:30N 37°01' W 122°36'612.7
2017-Sep-18 05:00N 36°55' W 122°35'712.8
2017-Sep-18 04:29N 36°48' W 122°34'613.0
2017-Sep-18 04:00N 36°42' W 122°33'612.8
2017-Sep-18 03:30N 36°36' W 122°31'1112.5
2017-Sep-18 02:39N 36°25' W 122°29'212.4
2017-Sep-18 02:28N 36°23' W 122°29'712.5
2017-Sep-18 01:53N 36°16' W 122°27'512.3
2017-Sep-18 01:30N 36°11' W 122°26'612.3
2017-Sep-18 01:00N 36°05' W 122°24'612.2
2017-Sep-18 00:30N 35°59' W 122°21'4 8.6
2017-Sep-18 00:00N 35°56' W 122°19'1 2.6
2017-Sep-17 23:30N 35°57' W 122°19'1 2.5
2017-Sep-17 23:00N 35°58' W 122°19'1 2.6
2017-Sep-17 22:30N 35°59' W 122°19'1 2.5
2017-Sep-17 22:00N 36°01' W 122°20'1 1.6
2017-Sep-17 21:30N 36°01' W 122°20'2 4.9
2017-Sep-17 21:00N 35°60' W 122°18'612.6
2017-Sep-17 20:30N 35°55' W 122°13'612.7
2017-Sep-17 20:00N 35°49' W 122°09'612.7
2017-Sep-17 19:30N 35°44' W 122°05'713.6
2017-Sep-17 19:00N 35°38' W 122°00'713.6
2017-Sep-17 18:30N 35°32' W 121°56'713.4
2017-Sep-17 18:00N 35°26' W 121°52'813.3
2017-Sep-17 17:23N 35°19' W 121°46'513.7
2017-Sep-17 17:00N 35°15' W 121°43'713.8
2017-Sep-17 16:31N 35°09' W 121°38'713.8
2017-Sep-17 16:00N 35°03' W 121°34'713.9
2017-Sep-17 15:30N 34°58' W 121°29'714.0
2017-Sep-17 15:00N 34°52' W 121°25'713.7
2017-Sep-17 14:30N 34°46' W 121°20'713.6
2017-Sep-17 14:00N 34°40' W 121°16'713.6
2017-Sep-17 13:30N 34°35' W 121°11'713.3
2017-Sep-17 13:01N 34°30' W 121°06'714.0
2017-Sep-17 12:31N 34°28' W 120°58'713.7
2017-Sep-17 12:00N 34°26' W 120°50'713.8
2017-Sep-17 11:31N 34°24' W 120°42'713.9
2017-Sep-17 11:01N 34°22' W 120°33'713.7
2017-Sep-17 10:29N 34°20' W 120°25'714.2
2017-Sep-17 10:00N 34°18' W 120°17'914.0
2017-Sep-17 09:23N 34°16' W 120°07'513.9
2017-Sep-17 09:00N 34°15' W 120°01'713.5
2017-Sep-17 08:30N 34°13' W 119°53'713.2
2017-Sep-17 08:00N 34°11' W 119°45'713.5
2017-Sep-17 07:30N 34°10' W 119°37'713.3
2017-Sep-17 07:00N 34°08' W 119°30'713.1
2017-Sep-17 06:30N 34°06' W 119°22'713.2
2017-Sep-17 05:59N 34°04' W 119°14'613.2
2017-Sep-17 05:30N 34°01' W 119°07'612.8
2017-Sep-17 05:00N 33°57' W 119°01'611.7
2017-Sep-17 04:30N 33°54' W 118°55'611.6
2017-Sep-17 03:59N 33°51' W 118°48'611.8
2017-Sep-17 03:30N 33°49' W 118°42'611.8
2017-Sep-17 03:00N 33°46' W 118°36'611.7
2017-Sep-17 02:27N 33°43' W 118°29'511.4
2017-Sep-17 02:01N 33°40' W 118°24'510.8
2017-Sep-17 01:31N 33°38' W 118°18'5 9.4
2017-Sep-17 01:00N 33°39' W 118°12'5 9.1
2017-Sep-17 00:30N 33°44' W 118°11'1 1.2
2017-Sep-16 23:54N 33°44' W 118°12'0 0.0
2017-Sep-16 23:30N 33°44' W 118°12'0 0.0
2017-Sep-16 23:00N 33°44' W 118°12'0 0.0
2017-Sep-16 22:30N 33°44' W 118°12'0 0.0
2017-Sep-16 22:00N 33°44' W 118°12'0 0.0
2017-Sep-16 21:24N 33°44' W 118°12'0 0.0
2017-Sep-16 20:48N 33°44' W 118°12'0 0.0
2017-Sep-16 20:30N 33°44' W 118°12'0 0.0
2017-Sep-16 19:48N 33°44' W 118°12'0 0.0
2017-Sep-16 19:30N 33°44' W 118°12'0 0.0
2017-Sep-16 19:00N 33°44' W 118°12'0 0.0
2017-Sep-16 18:30N 33°44' W 118°12'0 0.0
2017-Sep-16 18:00N 33°44' W 118°12'0 0.0
2017-Sep-16 17:27N 33°44' W 118°12'0 0.0
2017-Sep-16 17:00N 33°44' W 118°12'0 0.0
2017-Sep-16 16:30N 33°44' W 118°12'0 0.0
2017-Sep-16 16:00N 33°44' W 118°12'0 0.0
2017-Sep-16 15:27N 33°44' W 118°12'0 0.0
2017-Sep-16 14:57N 33°44' W 118°12'0 0.0
2017-Sep-16 14:27N 33°44' W 118°12'0 0.0
2017-Sep-16 14:00N 33°44' W 118°12'0 0.0
2017-Sep-16 13:30N 33°44' W 118°12'0 0.0
2017-Sep-16 13:00N 33°44' W 118°12'0 0.0
2017-Sep-16 12:30N 33°44' W 118°12'0 0.0
2017-Sep-16 12:00N 33°44' W 118°12'0 0.0
2017-Sep-16 11:30N 33°44' W 118°12'0 0.0
2017-Sep-16 10:54N 33°44' W 118°12'0 0.0
2017-Sep-16 10:24N 33°44' W 118°12'0 0.0
2017-Sep-16 08:57N 33°44' W 118°12'0 0.0
2017-Sep-16 07:56N 33°44' W 118°12'0 0.0
2017-Sep-16 07:26N 33°44' W 118°12'0 0.0
2017-Sep-16 06:59N 33°44' W 118°12'0 0.0
2017-Sep-16 06:29N 33°44' W 118°12'0 0.0
2017-Sep-16 05:59N 33°44' W 118°12'0 0.0
2017-Sep-16 05:29N 33°44' W 118°12'0 0.0
2017-Sep-16 04:59N 33°44' W 118°12'0 0.0
2017-Sep-16 04:26N 33°44' W 118°12'0 0.0
2017-Sep-16 03:53N 33°44' W 118°12'0 0.0
2017-Sep-16 03:29N 33°44' W 118°12'0 0.0
2017-Sep-16 02:59N 33°44' W 118°12'0 0.0
2017-Sep-16 02:29N 33°44' W 118°12'0 0.0
2017-Sep-16 01:59N 33°44' W 118°12'0 0.0
2017-Sep-16 01:26N 33°44' W 118°12'0 0.0
2017-Sep-16 00:50N 33°44' W 118°12'0 0.0
2017-Sep-15 22:44N 33°44' W 118°12'0 0.0
2017-Sep-15 22:14N 33°44' W 118°12'0 0.0
2017-Sep-15 21:56N 33°44' W 118°12'0 0.1
2017-Sep-15 21:26N 33°44' W 118°12'0 0.1
2017-Sep-15 20:50N 33°44' W 118°12'0 0.0
2017-Sep-15 20:02N 33°44' W 118°12'0 0.1
2017-Sep-15 19:59N 33°44' W 118°12'0 0.0
2017-Sep-15 19:29N 33°44' W 118°12'0 0.0
2017-Sep-15 18:59N 33°44' W 118°12'0 0.0
2017-Sep-15 18:30N 33°44' W 118°12'0 0.0
2017-Sep-15 18:00N 33°44' W 118°12'0 0.1
2017-Sep-15 17:27N 33°44' W 118°12'0 0.0
2017-Sep-15 15:07N 33°44' W 118°12'0 0.0
2017-Sep-15 14:58N 33°44' W 118°12'0 0.0
2017-Sep-15 14:28N 33°44' W 118°12'0 0.0
2017-Sep-15 13:43N 33°44' W 118°12'0 0.1
2017-Sep-15 13:25N 33°44' W 118°12'0 0.1
2017-Sep-15 12:55N 33°44' W 118°12'0 0.1
2017-Sep-15 12:30N 33°44' W 118°12'0 0.1
2017-Sep-15 12:00N 33°44' W 118°12'0 0.0
2017-Sep-15 11:30N 33°44' W 118°12'0 0.0
2017-Sep-15 11:00N 33°44' W 118°12'0 0.1
2017-Sep-15 10:30N 33°44' W 118°12'0 0.1
2017-Sep-15 10:00N 33°44' W 118°12'0 0.0
2017-Sep-15 09:30N 33°44' W 118°12'0 0.0
2017-Sep-15 08:57N 33°44' W 118°12'0 0.0
2017-Sep-15 08:30N 33°44' W 118°12'0 0.0
2017-Sep-15 08:00N 33°44' W 118°12'0 0.0
2017-Sep-15 07:30N 33°44' W 118°12'0 0.0
2017-Sep-15 07:00N 33°44' W 118°12'0 0.1
2017-Sep-15 06:30N 33°44' W 118°12'0 0.1
2017-Sep-15 06:00N 33°44' W 118°12'0 0.0
2017-Sep-15 03:51N 33°44' W 118°12'0 0.0
2017-Sep-15 03:21N 33°44' W 118°12'0 0.0
2017-Sep-15 03:00N 33°44' W 118°12'0 0.0
2017-Sep-15 02:24N 33°44' W 118°12'0 0.0
2017-Sep-15 02:00N 33°44' W 118°12'0 0.0
2017-Sep-15 01:27N 33°44' W 118°12'0 0.0
2017-Sep-14 23:57N 33°44' W 118°12'0 0.0
2017-Sep-14 23:27N 33°44' W 118°12'0 0.0
2017-Sep-14 22:51N 33°44' W 118°12'0 0.0
2017-Sep-14 22:27N 33°44' W 118°12'0 0.0
2017-Sep-14 22:00N 33°44' W 118°12'0 0.0
2017-Sep-14 21:30N 33°44' W 118°12'0 0.0
2017-Sep-14 21:00N 33°44' W 118°12'0 0.0
2017-Sep-14 20:24N 33°44' W 118°12'0 0.0
2017-Sep-14 20:00N 33°44' W 118°12'0 0.0
2017-Sep-14 19:27N 33°44' W 118°12'0 0.0
2017-Sep-14 18:57N 33°44' W 118°12'0 0.0
2017-Sep-14 18:30N 33°44' W 118°12'0 0.0
2017-Sep-14 18:00N 33°44' W 118°12'0 0.0
2017-Sep-14 17:23N 33°44' W 118°12'0 0.0
2017-Sep-14 16:53N 33°44' W 118°12'0 0.0
2017-Sep-14 15:05N 33°44' W 118°12'0 0.0
2017-Sep-14 14:59N 33°44' W 118°12'0 0.0
2017-Sep-14 14:23N 33°44' W 118°12'0 0.0
2017-Sep-14 13:56N 33°44' W 118°12'0 0.0
2017-Sep-14 13:29N 33°44' W 118°12'0 0.0
2017-Sep-14 12:53N 33°44' W 118°12'0 0.1
2017-Sep-14 12:30N 33°44' W 118°12'1 1.3
2017-Sep-14 12:01N 33°44' W 118°11'4 7.6
2017-Sep-14 11:31N 33°40' W 118°11'4 7.1
2017-Sep-14 11:01N 33°37' W 118°13'3 6.7
2017-Sep-14 10:31N 33°36' W 118°17'4 8.2
2017-Sep-14 10:00N 33°36' W 118°22'5 9.9
2017-Sep-14 09:31N 33°39' W 118°27'510.1
2017-Sep-14 09:00N 33°41' W 118°32'510.8
2017-Sep-14 08:30N 33°44' W 118°38'510.6
2017-Sep-14 08:00N 33°47' W 118°43'510.7
2017-Sep-14 07:31N 33°50' W 118°49'510.9
2017-Sep-14 07:00N 33°52' W 118°54'510.6
2017-Sep-14 06:31N 33°55' W 118°60'610.4
2017-Sep-14 05:59N 33°57' W 119°06'510.4
2017-Sep-14 05:30N 33°60' W 119°11'610.6
2017-Sep-14 04:59N 34°02' W 119°17'511.3
2017-Sep-14 04:30N 34°04' W 119°23'611.9
2017-Sep-14 04:00N 34°06' W 119°30'612.1
2017-Sep-14 03:30N 34°07' W 119°37'612.8
2017-Sep-14 03:00N 34°09' W 119°44'713.6
2017-Sep-14 02:30N 34°11' W 119°52'814.3
2017-Sep-14 01:56N 34°13' W 120°02'613.9
2017-Sep-14 01:30N 34°15' W 120°09'713.5
2017-Sep-14 01:00N 34°16' W 120°17'713.5
2017-Sep-14 00:30N 34°18' W 120°25'713.8
2017-Sep-13 23:59N 34°20' W 120°33'713.8
2017-Sep-13 23:30N 34°22' W 120°41'813.5
2017-Sep-13 22:56N 34°24' W 120°50'410.4
2017-Sep-13 22:30N 34°25' W 120°55'713.1
2017-Sep-13 21:59N 34°27' W 121°03'612.7
2017-Sep-13 21:30N 34°30' W 121°09'714.7
2017-Sep-13 21:00N 34°36' W 121°14'917.3
2017-Sep-13 20:30N 34°43' W 121°20'917.1
2017-Sep-13 20:00N 34°50' W 121°25'917.1
2017-Sep-13 19:30N 34°58' W 121°31'917.2
2017-Sep-13 19:00N 35°05' W 121°37'917.3
2017-Sep-13 18:30N 35°12' W 121°42'816.8
2017-Sep-13 18:00N 35°19' W 121°48'816.9
2017-Sep-13 17:30N 35°26' W 121°54'917.2
2017-Sep-13 17:00N 35°34' W 121°59'917.5
2017-Sep-13 16:30N 35°41' W 122°05'5017.5
2017-Sep-13 13:39N 36°23' W 122°38'417.4
2017-Sep-13 13:27N 36°26' W 122°41'1317.5
2017-Sep-13 12:42N 36°37' W 122°50'517.4
2017-Sep-13 12:27N 36°41' W 122°53'817.6
2017-Sep-13 12:00N 36°47' W 122°58'918.3
2017-Sep-13 11:30N 36°55' W 123°04'918.5
2017-Sep-13 11:00N 37°03' W 123°10'3118.6
2017-Sep-13 09:21N 37°29' W 123°31'2118.4
2017-Sep-13 08:13N 37°46' W 123°45'618.5
2017-Sep-13 07:53N 37°52' W 123°50'718.5
2017-Sep-13 07:30N 37°57' W 123°54'918.7
2017-Sep-13 07:00N 38°05' W 124°00'918.6
2017-Sep-13 06:30N 38°13' W 124°07'918.4
2017-Sep-13 06:00N 38°21' W 124°13'918.5
2017-Sep-13 05:30N 38°29' W 124°19'1818.9
2017-Sep-13 04:34N 38°44' W 124°30'119.1
2017-Sep-13 04:30N 38°45' W 124°31'  

Dump ship's entire track history